Time;durP1;ratioP1;P1;durP2;ratioP2;P2;SDS_P1;SDS_P2;PMS_P1;PMS_P2;Temp;Humidity;BMP_temperature;BMP_pressure;BME280_temperature;BME280_humidity;BME280_pressure;Samples;Min_cycle;Max_cycle;Signal;HPM_P1;HPM_P2
2022/12/31 00:01:29;;;;;;;1.38;1.02;;;12.50;99.90;;;15.21;61.88;97335.09;5042768;28;20259;-55
2022/12/31 00:03:57;;;;;;;2.50;1.10;;;12.50;99.90;;;15.22;61.80;97346.63;5043293;28;20049;-56
2022/12/31 00:06:31;;;;;;;1.55;0.90;;;12.50;99.90;;;15.25;61.74;97347.06;5041750;28;20360;-55
2022/12/31 00:09:02;;;;;;;1.92;0.90;;;12.50;99.90;;;15.28;61.71;97344.00;5042770;28;20053;-56
2022/12/31 00:11:32;;;;;;;1.88;1.08;;;12.60;99.90;;;15.31;61.81;97351.63;5042634;28;20053;-55
2022/12/31 00:14:01;;;;;;;1.73;1.40;;;12.60;99.90;;;15.31;61.51;97342.78;5043457;28;20094;-57
2022/12/31 00:16:36;;;;;;;3.88;1.15;;;12.60;99.90;;;15.33;61.57;97351.44;5043600;28;20386;-56
2022/12/31 00:19:07;;;;;;;1.02;0.73;;;12.60;99.90;;;15.40;61.19;97348.81;5042431;28;20045;-54
2022/12/31 00:21:36;;;;;;;0.80;0.60;;;12.60;99.90;;;15.39;61.12;97349.81;5041958;28;20053;-55
2022/12/31 00:24:05;;;;;;;1.33;0.75;;;12.60;99.90;;;15.42;61.23;97352.94;5042128;28;20071;-56
2022/12/31 00:26:34;;;;;;;0.55;0.55;;;12.70;99.90;;;15.42;61.25;97363.66;5042267;28;20053;-55
2022/12/31 00:29:03;;;;;;;2.65;0.85;;;12.70;99.90;;;15.46;61.12;97364.09;5043515;28;20051;-55
2022/12/31 00:31:37;;;;;;;0.93;0.70;;;12.70;99.90;;;15.51;61.12;97375.06;5043155;28;20056;-55
2022/12/31 00:34:05;;;;;;;0.30;0.30;;;12.80;99.90;;;15.53;60.77;97376.53;5042995;28;20079;-56
2022/12/31 00:36:37;;;;;;;0.80;0.50;;;12.80;99.90;;;15.59;60.87;97382.13;5042018;28;20056;-51
2022/12/31 00:39:07;;;;;;;1.05;0.70;;;12.80;99.90;;;15.62;60.76;97373.66;5042227;28;20041;-56
2022/12/31 00:41:36;;;;;;;1.67;0.50;;;12.90;99.90;;;15.65;60.66;97376.78;5043166;28;20054;-54
2022/12/31 00:44:04;;;;;;;0.82;0.68;;;12.90;99.90;;;15.61;60.71;97380.06;5042954;28;20041;-55
2022/12/31 00:46:32;;;;;;;0.45;0.45;;;12.90;99.90;;;15.62;60.66;97374.47;5042934;28;20057;-55
2022/12/31 00:49:00;;;;;;;1.00;0.70;;;13.00;99.90;;;15.68;60.58;97381.75;5042518;28;20053;-57
2022/12/31 00:51:28;;;;;;;0.85;0.80;;;13.00;99.90;;;15.73;60.45;97394.59;5041848;28;20233;-54
2022/12/31 00:53:56;;;;;;;0.80;0.57;;;13.00;99.90;;;15.75;60.15;97393.34;5042757;28;20218;-54
2022/12/31 00:56:28;;;;;;;0.55;0.43;;;13.00;99.90;;;15.77;60.45;97393.16;5041886;28;20104;-54
2022/12/31 00:58:58;;;;;;;0.55;0.55;;;13.10;99.90;;;15.84;60.24;97391.34;5041738;28;20046;-56
2022/12/31 01:01:35;;;;;;;2.38;0.50;;;13.10;99.90;;;15.85;60.16;97398.34;5042671;28;20247;-56
2022/12/31 01:04:16;;;;;;;1.65;0.60;;;13.10;99.90;;;15.85;60.18;97400.22;5041244;28;20057;-53
2022/12/31 01:06:44;;;;;;;1.00;0.95;;;13.10;99.90;;;15.89;60.06;97404.16;5041527;28;20251;-51
2022/12/31 01:09:14;;;;;;;0.47;0.45;;;13.10;99.90;;;15.83;60.14;97411.16;5041576;28;20232;-55
2022/12/31 01:11:42;;;;;;;0.93;0.50;;;13.10;99.90;;;15.79;60.55;97412.56;5042533;28;20077;-55
2022/12/31 01:14:17;;;;;;;0.50;0.50;;;13.10;99.90;;;15.83;60.11;97426.44;5042325;28;20279;-56
2022/12/31 01:16:52;;;;;;;0.52;0.52;;;13.10;99.90;;;15.86;59.99;97428.72;5042554;28;20046;-56
2022/12/31 01:19:27;;;;;;;0.55;0.55;;;13.10;99.90;;;15.75;60.40;97436.31;5041469;28;20049;-55
2022/12/31 01:21:56;;;;;;;0.68;0.50;;;13.10;99.90;;;15.85;60.11;97451.22;5035247;28;20033;-56
2022/12/31 01:24:24;;;;;;;1.83;0.80;;;13.10;99.90;;;15.84;60.19;97447.72;5041130;28;20221;-54
2022/12/31 01:26:54;;;;;;;0.82;0.57;;;13.10;99.90;;;15.80;60.37;97445.59;5042457;28;20045;-54
2022/12/31 01:29:22;;;;;;;0.40;0.40;;;13.10;99.90;;;15.76;60.19;97458.63;5041393;28;20063;-56
2022/12/31 01:31:50;;;;;;;0.60;0.50;;;13.10;99.90;;;15.77;60.15;97457.56;5034420;28;20047;-54
2022/12/31 01:34:18;;;;;;;0.82;0.70;;;13.10;99.90;;;15.73;60.05;97469.75;5040828;28;20041;-51
2022/12/31 01:36:46;;;;;;;0.65;0.60;;;13.10;99.90;;;15.66;60.66;97474.19;5041216;28;20221;-55
2022/12/31 01:39:13;;;;;;;0.88;0.75;;;13.10;99.90;;;15.63;60.51;97458.50;5039361;28;20059;-54
2022/12/31 01:41:45;;;;;;;0.88;0.55;;;13.10;99.90;;;15.53;60.71;97459.69;5042049;28;20049;-57
2022/12/31 01:44:22;;;;;;;1.13;0.80;;;13.10;99.90;;;15.54;60.50;97468.56;5040699;28;20057;-56
2022/12/31 01:46:59;;;;;;;0.30;0.30;;;13.00;99.90;;;15.62;60.09;97459.53;5034494;28;20041;-54
2022/12/31 01:50:02;;;;;;;0.63;0.60;;;13.00;99.90;;;15.61;59.94;97464.06;5042397;28;20059;-55
2022/12/31 01:52:38;;;;;;;1.15;0.75;;;13.00;99.90;;;15.62;60.00;97470.25;5037156;28;20053;-55
2022/12/31 01:55:22;;;;;;;0.57;0.50;;;12.90;99.90;;;15.60;59.99;97464.25;5040664;28;20328;-54
2022/12/31 01:57:56;;;;;;;0.88;0.70;;;12.90;99.90;;;15.61;59.56;97477.50;5041012;28;20037;-52
2022/12/31 02:00:24;;;;;;;2.35;0.80;;;12.90;99.90;;;15.57;59.76;97473.53;5040933;28;20045;-53
2022/12/31 02:02:52;;;;;;;1.13;0.50;;;12.90;99.90;;;15.48;59.82;97478.22;5041704;28;20335;-56
2022/12/31 02:05:51;;;;;;;0.45;0.40;;;12.90;99.90;;;15.42;59.75;97487.06;5041976;28;20045;-56
2022/12/31 02:08:20;;;;;;;0.65;0.65;;;13.00;99.90;;;15.44;59.78;97482.31;5038025;28;20052;-54
2022/12/31 02:10:48;;;;;;;1.48;0.50;;;13.00;99.90;;;15.42;59.56;97483.56;5039837;28;20056;-56
2022/12/31 02:13:16;;;;;;;0.77;0.63;;;13.00;99.90;;;15.31;59.68;97485.72;5041771;28;20255;-55
2022/12/31 02:16:21;;;;;;;0.47;0.40;;;13.10;99.90;;;15.50;59.27;97488.75;5040744;28;20063;-55
2022/12/31 02:19:17;;;;;;;0.50;0.43;;;13.10;99.90;;;15.60;58.55;97493.78;5040705;28;20041;-54
2022/12/31 02:22:22;;;;;;;3.13;1.10;;;13.10;99.90;;;15.70;58.53;97478.16;5041151;28;20049;-53
2022/12/31 02:25:18;;;;;;;0.80;0.60;;;13.10;99.90;;;15.76;58.12;97482.78;5040436;28;20045;-55
2022/12/31 02:28:06;;;;;;;0.70;0.70;;;13.20;99.90;;;15.88;58.11;97496.47;5040730;28;20064;-56
2022/12/31 02:30:38;;;;;;;0.43;0.43;;;13.30;99.90;;;15.82;57.84;97505.28;5040583;28;20048;-55
2022/12/31 02:33:20;;;;;;;1.75;0.70;;;13.40;99.90;;;15.91;57.25;97498.72;5039850;28;20056;-55
2022/12/31 02:36:19;;;;;;;0.80;0.65;;;13.40;99.90;;;15.85;57.32;97508.41;5040719;28;20068;-55
2022/12/31 02:38:48;;;;;;;1.42;0.73;;;13.40;99.90;;;16.06;57.17;97506.66;5040059;28;20049;-56
2022/12/31 02:44:27;;;;;;;0.70;0.70;;;13.50;99.90;;;16.04;56.46;97495.28;5034290;28;20041;-53
2022/12/31 02:47:35;;;;;;;0.57;0.57;;;13.50;99.90;;;16.06;56.51;97488.69;5033887;28;20358;-55
2022/12/31 02:50:26;;;;;;;1.95;0.70;;;13.40;99.90;;;16.12;56.63;97492.44;5034198;28;20049;-55
2022/12/31 02:53:25;;;;;;;1.65;0.90;;;13.40;99.90;;;16.11;56.59;97496.97;5032419;28;20037;-55
2022/12/31 02:56:26;;;;;;;0.88;0.60;;;13.40;99.90;;;16.11;56.62;97493.44;5041478;28;20051;-52
2022/12/31 03:02:15;;;;;;;0.85;0.68;;;13.50;99.90;;;16.19;56.34;97489.75;5040582;28;20351;-56
2022/12/31 03:04:54;;;;;;;0.50;0.50;;;13.50;99.90;;;16.10;56.28;97486.44;5040212;28;20060;-53
2022/12/31 03:07:31;;;;;;;0.68;0.52;;;13.50;99.90;;;16.17;56.26;97484.63;5040290;28;20059;-56
2022/12/31 03:10:00;;;;;;;0.65;0.63;;;13.50;99.90;;;16.13;55.89;97486.03;5034082;28;20248;-53
2022/12/31 03:12:46;;;;;;;0.80;0.52;;;13.50;99.90;;;16.21;56.08;97493.94;5042527;28;20366;-56
2022/12/31 03:15:27;;;;;;;0.75;0.63;;;13.50;99.90;;;16.25;55.91;97483.63;5044077;28;20267;-52
2022/12/31 03:18:01;;;;;;;1.00;0.75;;;13.60;99.90;;;16.30;55.78;97476.59;5036874;28;20196;-54
2022/12/31 03:23:35;;;;;;;1.15;0.80;;;13.60;99.90;;;16.33;55.64;97486.94;5039541;28;20056;-55
2022/12/31 03:26:09;;;;;;;2.78;0.80;;;13.60;99.90;;;16.30;55.55;97495.41;5044685;28;20045;-55
2022/12/31 03:28:46;;;;;;;0.77;0.60;;;13.60;99.90;;;16.27;55.36;97497.66;5044421;28;20045;-57
2022/12/31 03:31:15;;;;;;;1.50;0.98;;;13.50;99.90;;;16.24;55.47;97496.19;5043491;28;20055;-56
2022/12/31 03:33:43;;;;;;;1.85;1.05;;;13.50;99.90;;;16.23;55.79;97502.59;5026693;28;20057;-55
2022/12/31 03:36:13;;;;;;;0.73;0.73;;;13.50;99.90;;;16.26;55.89;97494.13;5044023;28;20055;-56
2022/12/31 03:38:41;;;;;;;0.90;0.80;;;13.50;99.90;;;16.24;55.79;97503.44;5043120;28;20056;-56
2022/12/31 03:41:10;;;;;;;1.55;0.85;;;13.50;99.90;;;16.20;55.89;97505.69;5045208;28;20057;-55
2022/12/31 03:43:38;;;;;;;1.23;0.90;;;13.50;99.90;;;16.21;55.87;97503.84;5043955;28;20042;-55
2022/12/31 03:46:06;;;;;;;1.02;0.73;;;13.50;99.90;;;16.22;55.98;97500.13;5043373;28;20049;-54
2022/12/31 03:48:33;;;;;;;2.10;0.88;;;13.50;99.90;;;16.24;56.05;97511.50;5043100;28;20045;-56
2022/12/31 03:51:04;;;;;;;0.90;0.73;;;13.50;99.90;;;16.27;55.80;97517.28;5044238;28;20042;-55
2022/12/31 03:53:34;;;;;;;0.88;0.75;;;13.50;99.90;;;16.32;55.96;97504.09;5043598;28;20041;-55
2022/12/31 03:56:02;;;;;;;1.23;0.75;;;13.60;99.90;;;16.38;55.81;97507.00;5044200;28;20041;-56
2022/12/31 03:58:30;;;;;;;0.77;0.68;;;13.70;99.90;;;16.40;55.76;97503.09;5043744;28;20045;-55
2022/12/31 04:00:57;;;;;;;1.20;0.80;;;13.70;99.90;;;16.43;55.82;97502.66;5036143;28;20075;-55
2022/12/31 04:03:27;;;;;;;0.93;0.70;;;13.70;99.90;;;16.46;55.72;97496.91;5043290;28;20049;-55
2022/12/31 04:05:55;;;;;;;0.88;0.70;;;13.70;99.90;;;16.50;55.73;97503.53;5044105;28;20051;-55
2022/12/31 04:08:23;;;;;;;1.13;0.90;;;13.80;99.90;;;16.52;55.76;97500.63;5044047;28;20049;-56
2022/12/31 04:10:51;;;;;;;0.60;0.60;;;13.80;99.90;;;16.53;55.71;97513.84;5043747;28;20049;-56
2022/12/31 04:13:19;;;;;;;1.33;0.90;;;13.80;99.90;;;16.54;55.74;97514.69;5043465;28;20045;-55
2022/12/31 04:15:50;;;;;;;1.27;0.90;;;13.80;99.90;;;16.57;55.67;97516.16;5043711;28;20055;-56
2022/12/31 04:18:18;;;;;;;1.40;0.98;;;13.80;99.90;;;16.59;55.81;97514.09;5043332;28;20258;-56
2022/12/31 04:20:46;;;;;;;1.52;0.70;;;13.80;99.90;;;16.61;55.77;97514.72;5043395;28;20042;-54
2022/12/31 04:23:14;;;;;;;1.00;0.80;;;13.80;99.90;;;16.60;55.80;97521.94;5043267;28;20141;-57
2022/12/31 04:25:41;;;;;;;1.08;0.90;;;13.80;99.90;;;16.58;55.69;97510.56;5043153;28;20056;-56
2022/12/31 04:28:10;;;;;;;0.77;0.68;;;13.80;99.90;;;16.64;55.79;97517.81;5042377;28;20037;-56
2022/12/31 04:30:39;;;;;;;0.98;0.77;;;13.90;99.90;;;16.64;55.76;97504.38;5043468;28;20049;-55
2022/12/31 04:33:07;;;;;;;0.80;0.57;;;13.90;99.90;;;16.67;55.97;97524.63;5043107;28;20045;-54
2022/12/31 04:35:34;;;;;;;0.70;0.70;;;13.90;99.90;;;16.71;55.78;97520.50;5043085;28;20251;-55
2022/12/31 04:38:02;;;;;;;1.13;0.88;;;14.00;99.90;;;16.74;55.61;97510.19;5042110;28;20057;-56
2022/12/31 04:40:31;;;;;;;2.90;0.73;;;13.90;99.90;;;16.76;55.54;97509.16;5038317;28;20053;-56
2022/12/31 04:42:59;;;;;;;0.75;0.75;;;14.00;99.90;;;16.76;55.56;97518.06;5034881;28;20352;-53
2022/12/31 04:45:27;;;;;;;1.38;0.75;;;14.00;99.90;;;16.74;55.65;97528.19;5025828;28;20041;-57
2022/12/31 04:47:55;;;;;;;1.48;1.20;;;14.00;99.90;;;16.74;55.55;97520.94;5043150;28;20037;-55
2022/12/31 04:50:22;;;;;;;0.73;0.60;;;14.00;99.90;;;16.77;55.33;97526.94;5043021;28;20053;-56
2022/12/31 04:52:50;;;;;;;2.03;0.68;;;14.00;99.90;;;16.75;55.60;97540.59;5042927;28;20037;-56
2022/12/31 04:55:18;;;;;;;0.73;0.73;;;14.00;99.90;;;16.73;55.69;97538.13;5042961;28;20248;-56
2022/12/31 04:57:46;;;;;;;0.63;0.63;;;14.00;99.90;;;16.76;55.56;97538.75;5042805;28;20049;-57
2022/12/31 05:00:14;;;;;;;1.25;1.02;;;14.00;99.90;;;16.74;55.68;97545.13;5042867;28;20271;-56
2022/12/31 05:02:42;;;;;;;1.23;0.73;;;14.00;99.90;;;16.71;55.72;97542.00;5041634;28;20041;-55
2022/12/31 05:05:10;;;;;;;0.93;0.80;;;14.00;99.90;;;16.71;55.75;97537.50;5042706;28;20060;-55
2022/12/31 05:07:38;;;;;;;0.50;0.50;;;14.00;99.90;;;16.72;55.68;97546.38;5042679;28;20047;-57
2022/12/31 05:10:06;;;;;;;1.85;0.80;;;14.00;99.90;;;16.70;55.68;97545.75;5042454;28;20270;-57
2022/12/31 05:12:34;;;;;;;1.42;0.85;;;14.00;99.90;;;16.72;55.57;97557.94;5042513;28;20049;-54
2022/12/31 05:15:02;;;;;;;0.80;0.73;;;14.00;99.90;;;16.70;55.72;97548.44;5034392;28;20352;-54
2022/12/31 05:17:30;;;;;;;0.82;0.70;;;14.00;99.90;;;16.70;55.65;97548.44;5042613;28;20045;-55
2022/12/31 05:19:57;;;;;;;0.60;0.60;;;14.00;99.90;;;16.69;55.66;97557.53;5042239;28;20047;-53
2022/12/31 05:22:28;;;;;;;0.75;0.75;;;14.00;99.90;;;16.72;55.86;97562.50;5042046;28;20059;-55
2022/12/31 05:24:58;;;;;;;2.75;0.85;;;14.00;99.90;;;16.76;55.97;97553.00;5042161;28;20052;-56
2022/12/31 05:27:29;;;;;;;2.92;1.02;;;14.10;99.90;;;16.79;55.75;97570.56;5042433;28;20225;-53
2022/12/31 05:29:58;;;;;;;1.48;0.70;;;14.20;99.90;;;16.81;55.50;97555.06;5041526;28;20356;-55
2022/12/31 05:32:26;;;;;;;1.15;0.80;;;14.20;99.90;;;16.84;55.60;97543.94;5041296;28;20046;-56
2022/12/31 05:34:55;;;;;;;0.70;0.60;;;14.30;99.90;;;16.87;55.55;97549.75;5041668;28;20055;-55
2022/12/31 05:37:23;;;;;;;1.23;0.82;;;14.30;99.90;;;16.86;55.66;97553.47;5041346;28;20049;-56
2022/12/31 05:39:51;;;;;;;1.42;0.73;;;14.30;99.90;;;16.87;55.61;97549.75;5024003;28;20264;-56
2022/12/31 05:42:20;;;;;;;1.30;0.63;;;14.30;99.90;;;16.90;55.48;97548.50;5042199;28;20049;-56
2022/12/31 05:44:49;;;;;;;0.57;0.50;;;14.40;99.90;;;16.95;55.48;97547.91;5041975;28;20041;-56
2022/12/31 05:47:17;;;;;;;0.55;0.55;;;14.30;99.90;;;16.95;55.39;97555.97;5042213;28;20339;-53
2022/12/31 05:49:45;;;;;;;0.90;0.55;;;14.30;99.90;;;16.97;55.36;97549.34;5042558;28;20045;-56
2022/12/31 05:52:13;;;;;;;0.88;0.85;;;14.40;99.90;;;16.99;55.37;97557.22;5040714;28;20049;-53
2022/12/31 05:54:41;;;;;;;1.27;0.52;;;14.40;99.90;;;16.97;55.79;97567.34;5041833;28;20347;-56
2022/12/31 05:57:09;;;;;;;2.40;0.52;;;14.40;99.90;;;17.04;55.35;97576.25;5042351;28;20045;-53
2022/12/31 05:59:37;;;;;;;0.47;0.47;;;14.40;99.90;;;16.97;55.71;97565.50;5041844;28;20051;-56
2022/12/31 06:02:05;;;;;;;1.05;0.65;;;14.50;99.90;;;17.03;55.33;97577.28;5040825;28;20041;-54
2022/12/31 06:04:33;;;;;;;1.13;0.85;;;14.50;99.90;;;17.04;55.59;97581.63;5041686;28;20045;-56
2022/12/31 06:07:01;;;;;;;3.05;1.63;;;14.50;99.90;;;17.07;55.19;97570.47;5040657;28;20041;-63
2022/12/31 06:09:29;;;;;;;2.15;1.20;;;14.50;99.90;;;17.05;55.52;97583.28;5041941;28;20041;-64
2022/12/31 06:11:56;;;;;;;2.00;1.10;;;14.50;99.90;;;17.05;55.26;97572.53;5041618;28;20041;-64
2022/12/31 06:14:24;;;;;;;1.08;0.77;;;14.50;99.90;;;17.10;55.20;97586.22;5041719;28;20366;-63
2022/12/31 06:16:52;;;;;;;3.70;1.27;;;14.50;99.90;;;17.13;55.26;97591.16;5041827;28;20056;-63
2022/12/31 06:19:20;;;;;;;0.70;0.70;;;14.50;99.90;;;17.11;55.21;97593.22;5042200;28;20065;-63
2022/12/31 06:21:48;;;;;;;2.53;1.50;;;14.50;99.90;;;17.11;55.08;97596.75;5040911;28;20034;-63
2022/12/31 06:24:16;;;;;;;7.90;4.03;;;14.50;99.90;;;17.15;54.85;97585.59;5040093;28;20042;-64
2022/12/31 06:26:44;;;;;;;4.90;2.65;;;14.50;99.90;;;17.10;54.87;97595.09;5040631;28;20340;-64
2022/12/31 06:29:12;;;;;;;1.52;1.00;;;14.50;99.90;;;17.12;54.83;97597.59;5041760;28;20038;-64
2022/12/31 06:31:39;;;;;;;0.82;0.68;;;14.50;99.90;;;17.16;54.75;97622.19;5041522;28;20045;-63
2022/12/31 06:34:07;;;;;;;2.75;0.82;;;14.50;99.90;;;17.16;54.77;97619.50;5041318;28;20041;-63
2022/12/31 06:36:35;;;;;;;1.25;1.02;;;14.50;99.90;;;17.18;54.61;97604.03;5041658;28;20251;-64
2022/12/31 06:39:03;;;;;;;1.63;1.05;;;14.50;99.90;;;17.11;54.82;97610.19;5041319;28;20255;-63
2022/12/31 06:41:31;;;;;;;1.60;1.20;;;14.50;99.90;;;17.11;54.73;97604.81;5041352;28;20052;-63
2022/12/31 06:43:59;;;;;;;0.85;0.80;;;14.50;99.90;;;17.05;54.75;97604.81;5041208;28;20049;-64
2022/12/31 06:46:26;;;;;;;1.27;0.80;;;14.50;99.90;;;17.08;54.79;97582.91;5041291;28;20045;-64
2022/12/31 06:48:54;;;;;;;0.80;0.70;;;14.50;99.90;;;17.11;54.44;97599.44;5045079;28;20041;-63
2022/12/31 06:51:23;;;;;;;2.58;0.73;;;14.50;99.90;;;17.11;54.47;97609.38;5044049;28;20071;-64
2022/12/31 06:53:51;;;;;;;2.15;1.17;;;14.50;99.90;;;17.10;54.65;97602.34;5043952;28;20045;-63
2022/12/31 06:56:24;;;;;;;2.25;0.88;;;14.50;99.90;;;17.10;54.35;97602.34;5044140;28;20041;-63
2022/12/31 06:59:01;;;;;;;1.00;0.70;;;14.50;99.90;;;17.14;54.26;97598.22;5045111;28;20055;-63
2022/12/31 07:01:54;;;;;;;0.90;0.60;;;14.50;99.90;;;17.08;54.45;97594.47;5044932;28;20037;-63
2022/12/31 07:04:43;;;;;;;0.93;0.90;;;14.50;99.90;;;17.15;54.28;97593.66;5037994;28;20037;-63
2022/12/31 07:07:29;;;;;;;0.70;0.70;;;14.50;99.90;;;17.17;54.25;97603.19;5037400;28;20048;-62
2022/12/31 07:10:14;;;;;;;1.23;0.98;;;14.50;99.90;;;17.03;54.31;97596.13;5044490;28;20049;-63
2022/12/31 07:13:31;;;;;;;1.50;0.90;;;14.50;99.90;;;17.10;54.23;97600.47;5043658;28;20347;-63
2022/12/31 07:16:31;;;;;;;0.52;0.50;;;14.50;99.90;;;17.11;54.13;97601.31;5044856;28;20251;-64
2022/12/31 07:19:20;;;;;;;0.98;0.73;;;14.50;99.90;;;17.09;54.16;97598.81;5044853;28;20344;-62
2022/12/31 07:21:50;;;;;;;1.17;0.90;;;14.50;99.90;;;17.16;54.18;97603.38;5042678;28;20041;-64
2022/12/31 07:24:19;;;;;;;0.70;0.70;;;14.60;99.90;;;17.18;54.03;97606.72;5043364;28;20239;-64
2022/12/31 07:27:08;;;;;;;1.02;0.70;;;14.60;99.90;;;17.20;53.93;97601.97;5044104;28;20041;-63
2022/12/31 07:29:50;;;;;;;1.10;0.70;;;14.60;99.90;;;17.25;53.90;97600.31;5044781;28;20051;-65
2022/12/31 07:32:46;;;;;;;1.35;0.95;;;14.60;99.90;;;17.24;54.03;97611.28;5037876;28;20052;-63
2022/12/31 07:35:58;;;;;;;1.30;1.00;;;14.70;99.90;;;17.15;53.81;97607.94;5036393;28;20060;-64
2022/12/31 07:38:43;;;;;;;1.98;0.80;;;14.70;99.90;;;17.27;53.66;97608.16;5039199;28;20045;-63
2022/12/31 07:41:57;;;;;;;0.68;0.60;;;14.70;99.90;;;17.21;53.53;97608.97;5032931;28;20037;-63
2022/12/31 07:44:57;;;;;;;0.65;0.65;;;14.80;99.90;;;17.25;53.62;97631.75;5038173;28;20045;-63
2022/12/31 07:47:27;;;;;;;1.73;0.60;;;14.80;99.90;;;17.23;53.68;97607.72;5038522;28;20351;-63
2022/12/31 07:49:56;;;;;;;1.20;0.80;;;14.80;99.90;;;17.26;53.36;97618.09;5043350;28;20053;-63
2022/12/31 07:52:25;;;;;;;1.40;1.10;;;14.80;99.90;;;17.28;53.33;97615.22;5044134;28;20048;-63
2022/12/31 07:54:53;;;;;;;1.50;0.80;;;14.90;99.90;;;17.38;53.11;97626.38;5043747;28;20052;-63
2022/12/31 07:57:30;;;;;;;1.90;0.93;;;14.90;99.90;;;17.31;53.18;97623.69;5043358;28;20037;-63
2022/12/31 08:00:17;;;;;;;2.42;0.80;;;14.90;99.90;;;17.41;53.08;97636.75;5044302;28;20051;-63
2022/12/31 08:03:09;;;;;;;2.15;0.88;;;15.00;99.90;;;17.45;52.78;97627.22;5042991;28;20037;-62
2022/12/31 08:06:20;;;;;;;0.52;0.45;;;15.00;99.90;;;17.53;53.01;97636.97;5042889;28;20049;-63
2022/12/31 08:09:38;;;;;;;0.95;0.90;;;15.00;99.90;;;17.57;52.54;97643.59;5037691;28;20259;-62
2022/12/31 08:12:07;;;;;;;0.73;0.70;;;15.00;99.90;;;17.60;52.46;97661.19;5042336;28;20060;-63
2022/12/31 08:14:46;;;;;;;1.15;0.70;;;15.00;99.90;;;17.62;52.63;97653.72;5026185;28;20041;-63
2022/12/31 08:17:19;;;;;;;0.95;0.80;;;15.00;99.90;;;17.65;52.34;97662.22;5031705;28;20041;-62
2022/12/31 08:19:47;;;;;;;1.97;1.20;;;15.00;99.90;;;17.61;52.15;97661.00;5034482;28;20041;-61
2022/12/31 08:22:55;;;;;;;0.70;0.70;;;15.10;99.90;;;17.66;52.31;97661.22;5040169;28;20040;-60
2022/12/31 08:25:50;;;;;;;0.75;0.70;;;15.10;99.90;;;17.69;52.29;97671.56;5037062;28;20068;-63
2022/12/31 08:28:45;;;;;;;1.60;0.93;;;15.20;99.90;;;17.73;52.34;97673.84;5036419;28;20041;-62
2022/12/31 08:31:22;;;;;;;1.35;0.80;;;15.20;99.90;;;17.80;51.95;97678.19;5035672;28;20041;-62
2022/12/31 08:34:29;;;;;;;1.92;1.10;;;15.20;99.90;;;17.82;51.86;97676.13;5043076;28;20352;-63
2022/12/31 08:37:09;;;;;;;1.90;0.73;;;15.30;99.90;;;17.93;51.45;97684.66;5042301;28;20358;-63
2022/12/31 08:40:17;;;;;;;0.90;0.77;;;15.30;99.90;;;17.81;51.32;97684.41;5043198;28;20037;-62
2022/12/31 08:43:13;;;;;;;1.60;1.00;;;15.30;99.30;;;17.90;51.55;97686.72;5042074;28;20037;-63
2022/12/31 08:45:52;;;;;;;2.80;2.33;;;15.30;99.90;;;17.96;51.45;97705.78;5038205;28;20243;-63
2022/12/31 08:48:36;;;;;;;2.58;1.27;;;15.30;99.90;;;17.90;51.37;97697.50;5035917;28;20037;-63
2022/12/31 08:51:05;;;;;;;3.22;2.00;;;15.30;99.90;;;17.93;51.33;97703.50;5042849;28;20348;-63
2022/12/31 08:53:33;;;;;;;1.15;0.95;;;15.30;99.60;;;17.89;51.26;97717.41;5042570;28;20055;-62
2022/12/31 08:56:31;;;;;;;4.22;1.75;;;15.30;98.70;;;17.92;51.55;97713.44;5042920;28;20247;-63
2022/12/31 08:59:07;;;;;;;1.67;1.30;;;15.30;98.80;;;17.93;50.94;97712.41;5042345;28;20061;-62
2022/12/31 09:01:53;;;;;;;1.25;1.00;;;15.30;98.10;;;17.94;51.09;97715.94;5042556;28;20072;-62
2022/12/31 09:04:53;;;;;;;1.00;0.90;;;15.30;96.80;;;17.88;51.06;97714.91;5042746;28;20037;-62
2022/12/31 09:07:55;;;;;;;1.10;0.77;;;15.30;97.50;;;17.91;51.05;97717.16;5035604;28;20042;-62
2022/12/31 09:10:30;;;;;;;1.50;0.88;;;15.30;98.20;;;17.92;50.81;97713.44;5039711;28;20049;-62
2022/12/31 09:13:46;;;;;;;1.67;0.93;;;15.30;98.70;;;17.89;51.30;97712.00;5040685;28;20057;-63
2022/12/31 09:16:37;;;;;;;0.93;0.80;;;15.30;97.10;;;17.92;50.95;97712.63;5040651;28;20057;-62
2022/12/31 09:19:05;;;;;;;3.50;1.00;;;15.30;97.80;;;17.92;50.92;97720.72;5042584;28;20041;-62
2022/12/31 09:21:33;;;;;;;1.65;1.10;;;15.30;97.90;;;17.94;50.98;97722.16;5042055;28;20042;-62
2022/12/31 09:24:01;;;;;;;1.35;1.10;;;15.30;97.60;;;17.95;51.03;97718.44;5042044;28;20052;-62
2022/12/31 09:27:08;;;;;;;4.47;0.98;;;15.40;97.60;;;17.95;51.03;97723.81;5042103;28;20051;-62
2022/12/31 09:29:50;;;;;;;0.60;0.60;;;15.40;96.50;;;18.02;50.77;97730.03;5036257;28;20049;-62
2022/12/31 09:32:40;;;;;;;1.80;0.80;;;15.50;95.90;;;18.08;50.65;97722.97;5034613;28;20045;-63
2022/12/31 09:35:46;;;;;;;1.63;0.70;;;15.50;95.00;;;18.12;50.50;97729.59;5041995;28;20049;-62
2022/12/31 09:38:51;;;;;;;1.42;0.90;;;15.60;94.70;;;17.93;50.84;97743.91;5041982;28;20370;-62
2022/12/31 09:41:36;;;;;;;1.50;1.27;;;15.50;92.90;;;18.08;50.44;97744.53;5034793;28;20369;-62
2022/12/31 09:44:25;;;;;;;1.20;0.90;;;15.60;93.70;;;18.06;50.42;97754.69;5041928;28;20343;-65
2022/12/31 09:47:20;;;;;;;1.35;0.88;;;15.60;92.20;;;18.10;50.43;97748.66;5041359;28;20029;-65
2022/12/31 09:50:31;;;;;;;1.27;0.82;;;15.60;93.20;;;18.13;50.54;97733.97;5042354;28;20049;-60
2022/12/31 09:53:35;;;;;;;0.73;0.70;;;15.60;92.70;;;18.19;50.34;97726.94;5039717;28;20052;-60
2022/12/31 09:56:21;;;;;;;0.90;0.90;;;15.60;92.30;;;18.24;50.10;97727.13;5042005;28;20055;-61
2022/12/31 09:59:09;;;;;;;0.90;0.90;;;15.60;92.70;;;18.20;49.96;97728.56;5042290;28;20037;-61
2022/12/31 10:02:19;;;;;;;1.33;0.73;;;15.60;92.80;;;18.26;50.10;97727.72;5035414;28;20053;-61
2022/12/31 10:04:58;;;;;;;1.55;1.02;;;15.70;91.50;;;18.27;50.00;97734.78;5037972;28;20037;-61
2022/12/31 10:08:00;;;;;;;1.15;1.00;;;15.70;92.60;;;18.31;49.60;97727.94;5033848;28;20056;-61
2022/12/31 10:10:57;;;;;;;0.90;0.80;;;15.70;90.00;;;18.20;49.78;97728.56;5034309;28;20056;-61
2022/12/31 10:13:40;;;;;;;1.42;1.10;;;15.70;89.10;;;18.24;49.45;97729.81;5033507;28;20045;-61
2022/12/31 10:16:36;;;;;;;0.82;0.80;;;15.70;89.20;;;18.28;49.42;97722.97;5041637;28;20045;-61
2022/12/31 10:20:06;;;;;;;2.22;1.00;;;15.80;87.30;;;18.32;49.37;97729.63;5041906;28;20385;-61
2022/12/31 10:23:14;;;;;;;1.77;1.00;;;15.70;87.80;;;18.33;49.33;97725.06;5038716;28;20040;-60
2022/12/31 10:26:28;;;;;;;0.93;0.80;;;15.70;88.10;;;18.30;49.37;97727.13;5040890;28;20046;-61
2022/12/31 10:29:19;;;;;;;1.23;1.13;;;15.70;86.80;;;18.31;49.36;97727.94;5042736;28;20048;-61
2022/12/31 10:32:41;;;;;;;1.75;0.82;;;15.70;87.40;;;18.27;49.06;97718.63;5045647;28;20121;-60
2022/12/31 10:35:19;;;;;;;2.35;0.82;;;15.80;85.60;;;18.35;49.20;97707.63;5041951;28;20295;-60
2022/12/31 10:38:21;;;;;;;0.98;0.88;;;15.90;85.50;;;18.29;49.21;97709.28;5045437;28;20355;-61
2022/12/31 10:41:16;;;;;;;1.08;0.98;;;15.90;84.50;;;18.34;49.08;97707.81;5039023;28;20049;-61
2022/12/31 10:44:31;;;;;;;1.00;0.90;;;15.90;83.70;;;18.45;49.05;97699.94;5039771;28;20037;-61
2022/12/31 10:47:31;;;;;;;0.77;0.70;;;15.90;84.50;;;18.45;48.33;97699.94;5041981;28;20053;-61
2022/12/31 10:50:17;;;;;;;0.77;0.75;;;16.00;83.70;;;18.55;48.59;97695.97;5045355;28;20247;-61
2022/12/31 10:53:28;;;;;;;1.73;0.85;;;16.00;83.00;;;18.60;48.80;97705.09;5045406;28;20055;-61
2022/12/31 10:57:13;;;;;;;1.05;0.77;;;16.10;82.50;;;18.66;48.39;97700.72;5042027;28;20359;-61
2022/12/31 11:00:11;;;;;;;;;;;16.10;81.30;;;18.71;48.05;97700.94;5042924;28;20359;-61
2022/12/31 11:02:59;;;;;;;1.13;0.70;;;16.10;80.00;;;18.75;47.93;97712.13;5043014;28;19917;-61
2022/12/31 11:05:58;;;;;;;0.80;0.80;;;16.10;80.20;;;18.66;47.92;97706.13;5037799;28;20042;-61
2022/12/31 11:08:40;;;;;;;1.40;0.93;;;16.10;79.20;;;18.75;47.96;97712.94;5037697;28;20056;-61
2022/12/31 11:11:39;;;;;;;1.38;1.10;;;16.20;81.00;;;18.83;47.68;97720.00;5044945;28;20051;-61
2022/12/31 11:14:30;;;;;;;1.92;0.80;;;16.30;79.70;;;18.87;47.96;97710.44;5044269;28;20059;-61
2022/12/31 11:17:25;;;;;;;1.45;1.00;;;16.30;79.10;;;18.88;47.48;97720.19;5043660;28;20079;-61
2022/12/31 11:20:42;;;;;;;2.65;2.45;;;16.30;78.90;;;18.83;47.02;97707.34;5044853;28;20041;-61